Flight Track Log - Related Links

Times and Time Zones

All times are in EDT time to prevent confusion due to time zone crossing. See the N231PF flight status page for this flight to view local times or setup timezone preferences in your user account.


Time Position Orientation Groundspeed Altitude Reporting Facility
EDT Latitude Longitude Course Direction KTS MPH feet Rate Location/Type
Sun 04:36:57 PM 43.9775 -72.6097 188° South 127 146 7,000  Level Boston Center
Sun 04:37:58 PM 43.9397 -72.6169 188° South 129 148 7,700 581 Climbing Boston Center
Sun 04:39:01 PM 43.9097 -72.6228 188° South 129 148 8,200 581 Climbing Boston Center
Sun 04:40:02 PM 43.8650 -72.6325 189° South 132 152 8,900 694 Climbing Boston Center
Sun 04:41:02 PM 43.8269 -72.6408 189° South 133 153 9,600 677 Climbing Boston Center
Sun 04:42:06 PM 43.7881 -72.6483 188° South 138 159 10,300 672 Climbing Boston Center
Sun 04:43:07 PM 43.7458 -72.6569 188° South 141 162 11,000 645 Climbing Boston Center
Sun 04:44:07 PM 43.7067 -72.6644 188° South 144 166 11,600 484 Climbing Boston Center
Sun 04:45:11 PM 43.6686 -72.6733 190° South 150 173 12,000 144 Climbing Boston Center
Sun 04:46:12 PM 43.6194 -72.6822 187° South 174 200 11,900 -48 Descending Boston Center
Sun 04:47:15 PM 43.5553 -72.6969 189° South 194 223 11,900  Level Boston Center
Sun 04:48:16 PM 43.5006 -72.7081 188° South 194 223 11,900  Level Boston Center
Sun 04:49:16 PM 43.4458 -72.7183 188° South 196 226 11,900  Level Boston Center
Sun 04:50:20 PM 43.3900 -72.7303 189° South 199 229 11,900  Level Boston Center
Sun 04:51:20 PM 43.3353 -72.7411 188° South 199 229 11,900  Level Boston Center
Sun 04:52:24 PM 43.2811 -72.7531 189° South 199 229 11,900  Level Boston Center
Sun 04:53:24 PM 43.2147 -72.7661 188° South 199 229 11,900  Level Boston Center
Sun 04:54:28 PM 43.1611 -72.7758 188° South 198 228 11,900  Level Boston Center
Sun 04:55:28 PM 43.1075 -72.7878 189° South 198 228 11,900  Level Boston Center
Sun 04:56:32 PM 43.0536 -72.7981 188° South 195 224 11,900  Level Boston Center
Sun 04:57:33 PM 42.9992 -72.8089 188° South 196 226 11,900  Level Boston Center
Sun 04:58:34 PM 42.9461 -72.8203 189° South 196 226 11,900  Level Boston Center
Sun 04:59:37 PM 42.8914 -72.8294 187° South 197 227 11,900  Level Boston Center
Sun 05:00:38 PM 42.8269 -72.8422 188° South 197 227 11,900  Level Boston Center
Sun 05:01:39 PM 42.7733 -72.8536 189° South 197 227 11,900  Level Boston Center
Sun 05:02:43 PM 42.7189 -72.8650 189° South 197 227 11,900  Level Boston Center
Sun 05:03:43 PM 42.6656 -72.8756 188° South 196 226 11,900  Level Boston Center
Sun 05:04:45 PM 42.6122 -72.8858 188° South 196 226 11,900  Level Boston Center
Sun 05:05:49 PM 42.5522 -72.8981 189° South 192 221 11,900  Level Boston Center
Sun 05:06:50 PM 42.5064 -72.9419 215° Southwest 187 215 11,900  Level Boston Center
Sun 05:07:50 PM 42.4614 -72.9819 213° Southwest 188 216 11,900  Level Boston Center
Sun 05:08:54 PM 42.4142 -73.0250 214° Southwest 190 219 11,900  Level Boston Center
Sun 05:09:55 PM 42.3697 -73.0644 213° Southwest 190 219 11,900  Level Boston Center
Sun 05:10:56 PM 42.3231 -73.1075 214° Southwest 190 219 11,900  Level Boston Center
Sun 05:12:00 PM 42.2797 -73.1467 214° Southwest 189 217 11,900  Level Boston Center
Sun 05:13:01 PM 42.2353 -73.1867 214° Southwest 190 219 11,900  Level Boston Center
Sun 05:14:04 PM 42.1881 -73.2281 213° Southwest 190 219 11,900  Level Boston Center
Sun 05:15:05 PM 42.1442 -73.2686 214° Southwest 190 219 11,900  Level Boston Center
Sun 05:16:09 PM 42.0969 -73.3097 213° Southwest 190 219 11,900  Level Boston Center
Sun 05:17:09 PM 42.0539 -73.3497 215° Southwest 190 219 11,900  Level Boston Center
Sun 05:18:10 PM 42.0056 -73.3889 211° Southwest 189 217 11,900  Level Boston Center
Sun 05:19:13 PM 41.9519 -73.4097 196° South 195 224 11,900 -48 Level Boston Center
Sun 05:20:14 PM 41.9000 -73.4328 198° South 196 226 11,800 -333 Descending Boston Center
Sun 05:21:19 PM 41.8408 -73.4572 197° South 204 235 11,200 -624 Descending Boston Center
Sun 05:22:19 PM 41.7844 -73.4831 199° South 212 244 10,500 -893 Descending Boston Center
Sun 05:23:20 PM 41.7236 -73.5122 200° South 212 244 9,400 -871 Descending Boston Center
Sun 05:24:23 PM 41.6669 -73.5333 196° South 212 244 8,700 -762 Descending Boston Center
Sun 05:25:26 PM 41.6078 -73.5575 197° South 210 242 7,800 -919 Descending Boston Center
Sun 05:26:27 PM 41.5525 -73.5800 197° South 208 239 6,800 -787 Descending Boston Center
Sun 05:27:28 PM 41.4997 -73.6058 200° South 205 236 6,200 -768 Descending Boston Center
Sun 05:28:32 PM 41.4422 -73.6272 196° South 204 235 5,200 -1,065 Descending Boston Center
Sun 05:29:32 PM 41.3881 -73.6386 189° South 201 231 4,000 -1,113 Descending Boston Center
Sun 05:30:36 PM 41.3325 -73.6544 192° South 194 223 2,900 -823 Descending Boston Center
Sun 05:31:36 PM 41.2908 -73.6856 209° Southwest 186 214 2,300 -435 Descending Boston Center
Sun 05:32:40 PM 41.2706 -73.7350 241° Southwest 176 203 2,000 -144 Descending Boston Center
Sun 05:33:41 PM 41.2381 -73.7728 221° Southwest 168 193 2,000 49 Level Boston Center
Sun 05:34:42 PM 41.1900 -73.7789 185° South 156 180 2,100  Climbing Boston Center
Sun 05:35:46 PM 41.1503 -73.7700 170° South 150 173 2,000 -288 Descending Boston Center
Sun 05:36:47 PM 41.1178 -73.7467 152° Southeast 143 165 1,500 -581 Descending Boston Center
Sun 05:37:50 PM 41.0875 -73.7236 150° Southeast 135 155 800 -387 Descending Boston Center
Sun 05:38:51 PM 41.0581 -73.7028 152° Southeast 133 153 700 -98 Descending Boston Center
Sun 05:40:00 PM 41.0669 -73.7076 270° West  Level Estimated
Sun 05:47:00 PM 41.0667 -73.7000 270° West  Level FlightAware Approximate

Login

Don't have an account? Register now (free) for customized features, flight alerts, and more!